This demonstration page uses our WeatherBlox Daily Observations layout. Learn more.

41.55636, -103.73856

Hourly Observations for April 2, 2019

Temp ( °F °C ) Dew Point ( °F °C ) Humidity (%) Winds ( mph kmh ) Pressure ( in mb ) Visibility ( mi km ) Precip ( " mm )
12:58 am 00:58 Mostly Cloudy with Light Showers 39 3.7 31 -0.5 74 74 N 12 19 30.09 1019 10 16.0934 0 0
1:58 am 01:58 Mostly Cloudy 37 2.9 30 -0.9 76 76 N 7 11 30.09 1019 10 16.0934 0 0
2:58 am 02:58 Mostly Cloudy 37 2.6 30 -0.9 78 78 NNW 10 17 30.11 1020 10 16.0934 0 0
3:58 am 03:58 Mostly Cloudy 34 1 30 -1 87 87 NW 7 11 30.11 1020 10 16.0934 0 0
4:58 am 04:58 Clear 32 -0.1 29 -1.6 90 90 NNW 8 13 30.11 1020 10 16.0934 0 0
5:58 am 05:58 Mostly Cloudy 33 0.3 30 -1.1 90 90 WNW 3 6 30.11 1020 10 16.0934 0 0
6:58 am 06:58 Mostly Cloudy 32 -0.2 29 -1.4 92 92 W 6 9 30.1 1019 10 16.0934 0 0
7:58 am 07:58 Mostly Cloudy 33 0.5 30 -0.9 90 90 W 7 11 30.09 1019 10 16.0934 0 0
8:58 am 08:58 Mostly Cloudy 33 0.5 31 -0.8 91 91 SW 9 15 30.08 1019 10 16.0934 0 0
10:58 am 10:58 Cloudy with Light Showers 33 0.4 31 -0.6 93 93 SSW 7 11 30.06 1018 10 16.0934 0 0
11:58 am 11:58 Mostly Cloudy 33 0.3 31 -0.6 94 94 S 8 13 30.07 1018 7 11.26538 0 0
12:58 pm 12:58 Mostly Cloudy 33 0.4 31 -0.7 92 92 SSW 13 20 30.09 1019 10 16.0934 0 0
1:58 pm 13:58 Mostly Cloudy 35 1.4 32 0.1 91 91 W 9 15 30.1 1019 10 16.0934 0 0
2:58 pm 14:58 Mostly Cloudy 38 3.3 33 0.8 84 84 WSW 12 19 30.08 1019 10 16.0934 0 0
3:58 pm 15:58 Mostly Cloudy 43 5.9 33 0.7 70 70 WSW 12 19 30.07 1018 10 16.0934 0 0
4:58 pm 16:58 Mostly Cloudy 45 7.4 30 -0.9 56 56 WSW 7 11 30.06 1018 10 16.0934 0 0
5:58 pm 17:58 Mostly Cloudy 47 8.1 32 -0.1 57 57 WSW 9 15 30.04 1017 10 16.0934 0 0
6:58 pm 18:58 Partly Cloudy 47 8.3 32 -0.2 55 55 SW 13 20 30.02 1017 10 16.0934 0 0
7:58 pm 19:58 Mostly Cloudy 46 7.9 32 0.2 59 59 WSW 17 28 30.01 1016 10 16.0934 0 0
8:58 pm 20:58 Mostly Cloudy 46 7.8 30 -1.2 53 53 WSW 13 20 30 1016 10 16.0934 0 0
9:58 pm 21:58 Mostly Cloudy 46 7.9 29 -1.7 51 51 WSW 14 22 30 1016 10 16.0934 0 0
10:58 pm 22:58 Mostly Sunny 47 8.5 26 -3.3 44 44 SSW 5 7 29.97 1015 10 16.0934 0 0
11:58 pm 23:58 Mostly Cloudy 47 8.3 26 -3.3 44 44 SSW 6 9 29.98 1015 10 16.0934 0 0

Powered by AerisWeather